Terminal Aerodrome Forecast
Issued by NWS Flagstaff, AZ

Home | Current Version | Previous Version | Text Only | Print | Product List | Glossary On
Versions: 1 2 3 4 5 6 7 8 9 10 11 12 13
000
FTUS45 KFGZ 052341
TAFFLG
TAF
KFLG 052341Z 0600/0624 20015G25KT P6SM BKN250
     FM060300 22010G20KT P6SM SCT250
     FM061500 20015G25KT P6SM SCT120 BKN250
     FM061900 21018G30KT P6SM SCT100 BKN150=

USA.gov is the U.S. government's official web portal to all federal, state and local government web resources and services.